sensor_id;sensor_type;location;lat;lon;timestamp;temperature;humidity
2893;DHT22;1456;51.840;12.184;2022-11-20T00:01:28;0.00;99.90
2893;DHT22;1456;51.840;12.184;2022-11-20T00:03:55;0.00;99.90
2893;DHT22;1456;51.840;12.184;2022-11-20T00:06:25;0.00;99.90
2893;DHT22;1456;51.840;12.184;2022-11-20T00:08:51;-0.10;99.90
2893;DHT22;1456;51.840;12.184;2022-11-20T00:11:20;0.00;99.90
2893;DHT22;1456;51.840;12.184;2022-11-20T00:13:48;0.00;99.90
2893;DHT22;1456;51.840;12.184;2022-11-20T00:16:17;0.00;99.90
2893;DHT22;1456;51.840;12.184;2022-11-20T00:18:43;-0.20;99.90
2893;DHT22;1456;51.840;12.184;2022-11-20T00:21:18;0.00;99.90
2893;DHT22;1456;51.840;12.184;2022-11-20T00:23:46;-0.20;99.90
2893;DHT22;1456;51.840;12.184;2022-11-20T00:26:16;-0.10;99.90
2893;DHT22;1456;51.840;12.184;2022-11-20T00:28:49;-0.20;99.90
2893;DHT22;1456;51.840;12.184;2022-11-20T00:31:16;-0.40;99.90
2893;DHT22;1456;51.840;12.184;2022-11-20T00:33:43;-0.50;99.90
2893;DHT22;1456;51.840;12.184;2022-11-20T00:36:11;-0.50;99.90
2893;DHT22;1456;51.840;12.184;2022-11-20T00:38:37;-0.70;99.90
2893;DHT22;1456;51.840;12.184;2022-11-20T00:41:05;-0.80;99.90
2893;DHT22;1456;51.840;12.184;2022-11-20T00:43:31;-0.80;99.90
2893;DHT22;1456;51.840;12.184;2022-11-20T00:46:00;-0.80;99.90
2893;DHT22;1456;51.840;12.184;2022-11-20T00:48:26;-1.00;99.90
2893;DHT22;1456;51.840;12.184;2022-11-20T00:50:53;-1.30;99.90
2893;DHT22;1456;51.840;12.184;2022-11-20T00:53:19;-1.40;99.90
2893;DHT22;1456;51.840;12.184;2022-11-20T00:56:00;-1.50;99.90
2893;DHT22;1456;51.840;12.184;2022-11-20T00:58:31;-1.70;99.90
2893;DHT22;1456;51.840;12.184;2022-11-20T01:03:31;-2.00;99.90
2893;DHT22;1456;51.840;12.184;2022-11-20T01:06:01;-2.10;99.90
2893;DHT22;1456;51.840;12.184;2022-11-20T01:08:33;-2.20;99.90
2893;DHT22;1456;51.840;12.184;2022-11-20T01:11:04;-2.20;99.90
2893;DHT22;1456;51.840;12.184;2022-11-20T01:13:31;-2.30;99.90
2893;DHT22;1456;51.840;12.184;2022-11-20T01:16:06;-2.40;99.90
2893;DHT22;1456;51.840;12.184;2022-11-20T01:18:33;-2.40;99.90
2893;DHT22;1456;51.840;12.184;2022-11-20T01:21:10;-2.50;99.90
2893;DHT22;1456;51.840;12.184;2022-11-20T01:23:38;-2.50;99.90
2893;DHT22;1456;51.840;12.184;2022-11-20T01:26:09;-2.70;99.90
2893;DHT22;1456;51.840;12.184;2022-11-20T01:28:35;-2.80;99.90
2893;DHT22;1456;51.840;12.184;2022-11-20T01:31:52;-2.70;99.90
2893;DHT22;1456;51.840;12.184;2022-11-20T01:34:01;-2.90;99.90
2893;DHT22;1456;51.840;12.184;2022-11-20T01:36:29;-3.00;99.90
2893;DHT22;1456;51.840;12.184;2022-11-20T01:38:57;-3.10;99.90
2893;DHT22;1456;51.840;12.184;2022-11-20T01:41:24;-3.10;99.90
2893;DHT22;1456;51.840;12.184;2022-11-20T01:44:12;-3.10;99.90
2893;DHT22;1456;51.840;12.184;2022-11-20T01:47:05;-3.20;99.90
2893;DHT22;1456;51.840;12.184;2022-11-20T01:49:38;-3.20;99.90
2893;DHT22;1456;51.840;12.184;2022-11-20T01:52:40;-3.20;99.90
2893;DHT22;1456;51.840;12.184;2022-11-20T01:55:15;-3.20;99.90
2893;DHT22;1456;51.840;12.184;2022-11-20T01:57:44;-3.20;99.90
2893;DHT22;1456;51.840;12.184;2022-11-20T02:00:14;-3.30;99.90
2893;DHT22;1456;51.840;12.184;2022-11-20T02:02:44;-3.50;99.90
2893;DHT22;1456;51.840;12.184;2022-11-20T02:07:58;-3.30;99.90
2893;DHT22;1456;51.840;12.184;2022-11-20T02:10:24;-3.30;99.90
2893;DHT22;1456;51.840;12.184;2022-11-20T02:12:51;-3.30;99.90
2893;DHT22;1456;51.840;12.184;2022-11-20T02:15:35;-3.40;99.90
2893;DHT22;1456;51.840;12.184;2022-11-20T02:18:04;-3.40;99.90
2893;DHT22;1456;51.840;12.184;2022-11-20T02:20:30;-3.50;99.90
2893;DHT22;1456;51.840;12.184;2022-11-20T02:23:02;-3.50;99.90
2893;DHT22;1456;51.840;12.184;2022-11-20T02:25:31;-3.50;99.90
2893;DHT22;1456;51.840;12.184;2022-11-20T02:27:59;-3.50;99.90
2893;DHT22;1456;51.840;12.184;2022-11-20T02:30:25;-3.60;99.90
2893;DHT22;1456;51.840;12.184;2022-11-20T02:32:50;-3.60;99.90
2893;DHT22;1456;51.840;12.184;2022-11-20T02:37:54;-3.70;99.90
2893;DHT22;1456;51.840;12.184;2022-11-20T02:40:20;-3.80;99.90
2893;DHT22;1456;51.840;12.184;2022-11-20T02:42:46;-3.70;99.90
2893;DHT22;1456;51.840;12.184;2022-11-20T02:45:11;-3.70;99.90
2893;DHT22;1456;51.840;12.184;2022-11-20T02:47:37;-3.70;99.90
2893;DHT22;1456;51.840;12.184;2022-11-20T02:50:04;-3.70;99.90
2893;DHT22;1456;51.840;12.184;2022-11-20T02:52:30;-3.70;99.90
2893;DHT22;1456;51.840;12.184;2022-11-20T02:54:56;-3.70;99.90
2893;DHT22;1456;51.840;12.184;2022-11-20T02:57:23;-3.70;99.90
2893;DHT22;1456;51.840;12.184;2022-11-20T02:59:48;-3.60;99.90
2893;DHT22;1456;51.840;12.184;2022-11-20T03:02:14;-3.70;99.90
2893;DHT22;1456;51.840;12.184;2022-11-20T03:04:40;-3.80;99.90
2893;DHT22;1456;51.840;12.184;2022-11-20T03:07:05;-3.80;99.90
2893;DHT22;1456;51.840;12.184;2022-11-20T03:09:32;-3.80;99.90
2893;DHT22;1456;51.840;12.184;2022-11-20T03:11:58;-3.80;99.90
2893;DHT22;1456;51.840;12.184;2022-11-20T03:14:24;-3.80;99.90
2893;DHT22;1456;51.840;12.184;2022-11-20T03:16:49;-3.80;99.90
2893;DHT22;1456;51.840;12.184;2022-11-20T03:19:15;-3.80;99.90
2893;DHT22;1456;51.840;12.184;2022-11-20T03:21:40;-3.80;99.90
2893;DHT22;1456;51.840;12.184;2022-11-20T03:24:06;-3.90;99.90
2893;DHT22;1456;51.840;12.184;2022-11-20T03:26:32;-3.90;99.90
2893;DHT22;1456;51.840;12.184;2022-11-20T03:29:00;-3.90;99.90
2893;DHT22;1456;51.840;12.184;2022-11-20T03:31:30;-3.90;99.90
2893;DHT22;1456;51.840;12.184;2022-11-20T03:33:57;-3.80;99.90
2893;DHT22;1456;51.840;12.184;2022-11-20T03:36:25;-4.00;99.90
2893;DHT22;1456;51.840;12.184;2022-11-20T03:38:53;-3.80;99.90
2893;DHT22;1456;51.840;12.184;2022-11-20T03:41:28;-4.00;99.90
2893;DHT22;1456;51.840;12.184;2022-11-20T03:44:03;-4.00;99.90
2893;DHT22;1456;51.840;12.184;2022-11-20T03:46:30;-4.00;99.90
2893;DHT22;1456;51.840;12.184;2022-11-20T03:48:57;-4.00;99.90
2893;DHT22;1456;51.840;12.184;2022-11-20T03:51:25;-4.00;99.90
2893;DHT22;1456;51.840;12.184;2022-11-20T03:53:53;-4.00;99.90
2893;DHT22;1456;51.840;12.184;2022-11-20T03:56:22;-4.00;99.90
2893;DHT22;1456;51.840;12.184;2022-11-20T03:58:50;-4.10;99.90
2893;DHT22;1456;51.840;12.184;2022-11-20T04:01:18;-4.20;99.90
2893;DHT22;1456;51.840;12.184;2022-11-20T04:03:45;-4.20;99.90
2893;DHT22;1456;51.840;12.184;2022-11-20T04:06:16;-4.20;99.90
2893;DHT22;1456;51.840;12.184;2022-11-20T04:08:42;-4.30;99.90
2893;DHT22;1456;51.840;12.184;2022-11-20T04:11:16;-4.30;99.90
2893;DHT22;1456;51.840;12.184;2022-11-20T04:13:45;-4.30;99.90
2893;DHT22;1456;51.840;12.184;2022-11-20T04:16:12;-4.40;99.90
2893;DHT22;1456;51.840;12.184;2022-11-20T04:18:37;-4.40;99.90
2893;DHT22;1456;51.840;12.184;2022-11-20T04:21:04;-4.40;99.90
2893;DHT22;1456;51.840;12.184;2022-11-20T04:23:31;-4.50;99.90
2893;DHT22;1456;51.840;12.184;2022-11-20T04:26:08;-4.50;99.90
2893;DHT22;1456;51.840;12.184;2022-11-20T04:28:35;-4.40;99.90
2893;DHT22;1456;51.840;12.184;2022-11-20T04:31:07;-4.40;99.90
2893;DHT22;1456;51.840;12.184;2022-11-20T04:33:35;-4.50;99.90
2893;DHT22;1456;51.840;12.184;2022-11-20T04:36:22;-4.50;99.90
2893;DHT22;1456;51.840;12.184;2022-11-20T04:38:58;-4.50;99.90
2893;DHT22;1456;51.840;12.184;2022-11-20T04:41:27;-4.50;99.90
2893;DHT22;1456;51.840;12.184;2022-11-20T04:43:55;-4.60;99.90
2893;DHT22;1456;51.840;12.184;2022-11-20T04:46:26;-4.60;99.90
2893;DHT22;1456;51.840;12.184;2022-11-20T04:48:52;-4.60;99.90
2893;DHT22;1456;51.840;12.184;2022-11-20T04:51:17;-4.60;99.90
2893;DHT22;1456;51.840;12.184;2022-11-20T04:53:44;-4.60;99.90
2893;DHT22;1456;51.840;12.184;2022-11-20T04:56:11;-4.70;99.90
2893;DHT22;1456;51.840;12.184;2022-11-20T04:58:38;-4.70;99.90
2893;DHT22;1456;51.840;12.184;2022-11-20T05:01:11;-4.70;99.90
2893;DHT22;1456;51.840;12.184;2022-11-20T05:03:39;-4.70;99.90
2893;DHT22;1456;51.840;12.184;2022-11-20T05:06:07;-4.60;99.90
2893;DHT22;1456;51.840;12.184;2022-11-20T05:08:34;-4.70;99.90
2893;DHT22;1456;51.840;12.184;2022-11-20T05:11:14;-4.70;99.90
2893;DHT22;1456;51.840;12.184;2022-11-20T05:13:40;-4.80;99.90
2893;DHT22;1456;51.840;12.184;2022-11-20T05:16:08;-4.80;99.90
2893;DHT22;1456;51.840;12.184;2022-11-20T05:18:35;-4.80;99.90
2893;DHT22;1456;51.840;12.184;2022-11-20T05:21:00;-4.90;99.90
2893;DHT22;1456;51.840;12.184;2022-11-20T05:23:27;-4.80;99.90
2893;DHT22;1456;51.840;12.184;2022-11-20T05:25:54;-4.90;99.90
2893;DHT22;1456;51.840;12.184;2022-11-20T05:28:21;-4.90;99.90
2893;DHT22;1456;51.840;12.184;2022-11-20T05:30:46;-4.90;99.90
2893;DHT22;1456;51.840;12.184;2022-11-20T05:33:12;-5.00;99.90
2893;DHT22;1456;51.840;12.184;2022-11-20T05:35:41;-5.00;99.90
2893;DHT22;1456;51.840;12.184;2022-11-20T05:38:08;-5.00;99.90
2893;DHT22;1456;51.840;12.184;2022-11-20T05:40:33;-5.00;99.90
2893;DHT22;1456;51.840;12.184;2022-11-20T05:43:00;-5.00;99.90
2893;DHT22;1456;51.840;12.184;2022-11-20T05:45:26;-5.00;99.90
2893;DHT22;1456;51.840;12.184;2022-11-20T05:47:52;-5.00;99.90
2893;DHT22;1456;51.840;12.184;2022-11-20T05:50:17;-5.10;99.90
2893;DHT22;1456;51.840;12.184;2022-11-20T05:52:43;-5.10;99.90
2893;DHT22;1456;51.840;12.184;2022-11-20T05:55:09;-5.10;99.90
2893;DHT22;1456;51.840;12.184;2022-11-20T05:57:35;-5.10;99.90
2893;DHT22;1456;51.840;12.184;2022-11-20T06:00:01;-5.10;99.90
2893;DHT22;1456;51.840;12.184;2022-11-20T06:02:27;-4.90;99.90
2893;DHT22;1456;51.840;12.184;2022-11-20T06:04:55;-5.10;99.90
2893;DHT22;1456;51.840;12.184;2022-11-20T06:07:22;-5.10;99.90
2893;DHT22;1456;51.840;12.184;2022-11-20T06:09:48;-5.10;99.90
2893;DHT22;1456;51.840;12.184;2022-11-20T06:12:13;-5.10;99.90
2893;DHT22;1456;51.840;12.184;2022-11-20T06:14:39;-5.10;99.90
2893;DHT22;1456;51.840;12.184;2022-11-20T06:17:04;-5.20;99.90
2893;DHT22;1456;51.840;12.184;2022-11-20T06:19:30;-5.20;99.90
2893;DHT22;1456;51.840;12.184;2022-11-20T06:21:55;-5.20;99.90
2893;DHT22;1456;51.840;12.184;2022-11-20T06:24:21;-5.30;99.90
2893;DHT22;1456;51.840;12.184;2022-11-20T06:26:48;-5.30;99.90
2893;DHT22;1456;51.840;12.184;2022-11-20T06:29:13;-5.30;99.90
2893;DHT22;1456;51.840;12.184;2022-11-20T06:31:40;-5.30;99.90
2893;DHT22;1456;51.840;12.184;2022-11-20T06:34:11;-5.30;99.90
2893;DHT22;1456;51.840;12.184;2022-11-20T06:36:37;-5.30;99.90
2893;DHT22;1456;51.840;12.184;2022-11-20T06:39:03;-5.30;99.90
2893;DHT22;1456;51.840;12.184;2022-11-20T06:41:29;-5.20;99.90
2893;DHT22;1456;51.840;12.184;2022-11-20T06:43:55;-5.20;99.90
2893;DHT22;1456;51.840;12.184;2022-11-20T06:46:21;-5.20;99.90
2893;DHT22;1456;51.840;12.184;2022-11-20T06:48:48;-5.20;99.90
2893;DHT22;1456;51.840;12.184;2022-11-20T06:51:15;-5.20;99.90
2893;DHT22;1456;51.840;12.184;2022-11-20T06:53:41;-5.10;99.90
2893;DHT22;1456;51.840;12.184;2022-11-20T06:56:07;-5.10;99.90
2893;DHT22;1456;51.840;12.184;2022-11-20T06:58:34;-5.00;99.90
2893;DHT22;1456;51.840;12.184;2022-11-20T07:01:01;-5.00;99.90
2893;DHT22;1456;51.840;12.184;2022-11-20T07:03:28;-4.90;99.90
2893;DHT22;1456;51.840;12.184;2022-11-20T07:05:57;-4.90;99.90
2893;DHT22;1456;51.840;12.184;2022-11-20T07:08:24;-4.90;99.90
2893;DHT22;1456;51.840;12.184;2022-11-20T07:10:49;-4.90;99.90
2893;DHT22;1456;51.840;12.184;2022-11-20T07:13:15;-4.90;99.90
2893;DHT22;1456;51.840;12.184;2022-11-20T07:15:41;-4.90;99.90
2893;DHT22;1456;51.840;12.184;2022-11-20T07:18:06;-4.80;99.90
2893;DHT22;1456;51.840;12.184;2022-11-20T07:20:32;-4.80;99.90
2893;DHT22;1456;51.840;12.184;2022-11-20T07:22:58;-4.60;99.90
2893;DHT22;1456;51.840;12.184;2022-11-20T07:25:26;-4.70;99.90
2893;DHT22;1456;51.840;12.184;2022-11-20T07:27:51;-4.60;99.90
2893;DHT22;1456;51.840;12.184;2022-11-20T07:30:18;-4.60;99.90
2893;DHT22;1456;51.840;12.184;2022-11-20T07:32:47;-4.50;99.90
2893;DHT22;1456;51.840;12.184;2022-11-20T07:35:13;-4.20;99.90
2893;DHT22;1456;51.840;12.184;2022-11-20T07:37:40;-4.40;99.90
2893;DHT22;1456;51.840;12.184;2022-11-20T07:40:06;-4.30;99.90
2893;DHT22;1456;51.840;12.184;2022-11-20T07:42:32;-4.20;99.90
2893;DHT22;1456;51.840;12.184;2022-11-20T07:44:58;-4.10;99.90
2893;DHT22;1456;51.840;12.184;2022-11-20T07:47:23;-4.00;99.90
2893;DHT22;1456;51.840;12.184;2022-11-20T07:49:50;-3.80;99.90
2893;DHT22;1456;51.840;12.184;2022-11-20T07:52:15;-3.80;99.90
2893;DHT22;1456;51.840;12.184;2022-11-20T07:54:41;-3.70;99.90
2893;DHT22;1456;51.840;12.184;2022-11-20T07:57:07;-3.70;99.90
2893;DHT22;1456;51.840;12.184;2022-11-20T07:59:32;-3.60;99.90
2893;DHT22;1456;51.840;12.184;2022-11-20T08:01:58;-3.50;99.90
2893;DHT22;1456;51.840;12.184;2022-11-20T08:04:24;-3.40;99.90
2893;DHT22;1456;51.840;12.184;2022-11-20T08:06:51;-3.20;99.90
2893;DHT22;1456;51.840;12.184;2022-11-20T08:09:17;-2.80;99.90
2893;DHT22;1456;51.840;12.184;2022-11-20T08:11:43;-2.70;99.90
2893;DHT22;1456;51.840;12.184;2022-11-20T08:14:27;-2.40;99.90
2893;DHT22;1456;51.840;12.184;2022-11-20T08:16:54;-2.00;99.90
2893;DHT22;1456;51.840;12.184;2022-11-20T08:19:20;-1.80;99.90
2893;DHT22;1456;51.840;12.184;2022-11-20T08:21:45;-1.40;99.90
2893;DHT22;1456;51.840;12.184;2022-11-20T08:24:11;-1.10;99.90
2893;DHT22;1456;51.840;12.184;2022-11-20T08:26:38;-0.90;99.90
2893;DHT22;1456;51.840;12.184;2022-11-20T08:29:04;-0.70;99.90
2893;DHT22;1456;51.840;12.184;2022-11-20T08:31:31;-0.60;99.90
2893;DHT22;1456;51.840;12.184;2022-11-20T08:33:58;-0.40;99.90
2893;DHT22;1456;51.840;12.184;2022-11-20T08:36:24;-0.40;99.90
2893;DHT22;1456;51.840;12.184;2022-11-20T08:38:54;-0.40;99.90
2893;DHT22;1456;51.840;12.184;2022-11-20T08:41:22;-0.50;99.90
2893;DHT22;1456;51.840;12.184;2022-11-20T08:44:02;-0.70;99.90
2893;DHT22;1456;51.840;12.184;2022-11-20T08:46:37;-0.90;99.90
2893;DHT22;1456;51.840;12.184;2022-11-20T08:49:05;-1.00;99.90
2893;DHT22;1456;51.840;12.184;2022-11-20T08:51:32;-1.00;99.90
2893;DHT22;1456;51.840;12.184;2022-11-20T08:53:58;-1.20;99.90
2893;DHT22;1456;51.840;12.184;2022-11-20T08:56:24;-1.10;99.90
2893;DHT22;1456;51.840;12.184;2022-11-20T08:58:51;-1.20;99.90
2893;DHT22;1456;51.840;12.184;2022-11-20T09:01:18;-1.20;99.90
2893;DHT22;1456;51.840;12.184;2022-11-20T09:03:44;-1.30;99.90
2893;DHT22;1456;51.840;12.184;2022-11-20T09:06:10;-1.20;99.90
2893;DHT22;1456;51.840;12.184;2022-11-20T09:08:36;-1.30;99.90
2893;DHT22;1456;51.840;12.184;2022-11-20T09:11:02;-1.30;99.90
2893;DHT22;1456;51.840;12.184;2022-11-20T09:13:29;-1.00;99.90
2893;DHT22;1456;51.840;12.184;2022-11-20T09:15:59;-1.10;99.90
2893;DHT22;1456;51.840;12.184;2022-11-20T09:18:27;-1.00;99.90
2893;DHT22;1456;51.840;12.184;2022-11-20T09:20:58;-1.10;99.90
2893;DHT22;1456;51.840;12.184;2022-11-20T09:23:25;-1.00;99.90
2893;DHT22;1456;51.840;12.184;2022-11-20T09:25:51;-1.00;99.90
2893;DHT22;1456;51.840;12.184;2022-11-20T09:28:18;-0.70;99.90
2893;DHT22;1456;51.840;12.184;2022-11-20T09:30:44;-0.80;99.90
2893;DHT22;1456;51.840;12.184;2022-11-20T09:33:11;-0.60;99.90
2893;DHT22;1456;51.840;12.184;2022-11-20T09:35:36;-0.60;99.90
2893;DHT22;1456;51.840;12.184;2022-11-20T09:38:05;-0.60;99.90
2893;DHT22;1456;51.840;12.184;2022-11-20T09:40:31;-0.60;99.90
2893;DHT22;1456;51.840;12.184;2022-11-20T09:43:21;-0.50;99.90
2893;DHT22;1456;51.840;12.184;2022-11-20T09:46:08;-0.50;99.90
2893;DHT22;1456;51.840;12.184;2022-11-20T09:51:19;-0.40;99.90
2893;DHT22;1456;51.840;12.184;2022-11-20T09:54:21;-0.40;99.90
2893;DHT22;1456;51.840;12.184;2022-11-20T09:56:55;-0.30;99.90
2893;DHT22;1456;51.840;12.184;2022-11-20T09:59:45;-0.20;99.90
2893;DHT22;1456;51.840;12.184;2022-11-20T10:05:04;0.00;99.90
2893;DHT22;1456;51.840;12.184;2022-11-20T10:07:48;-0.10;99.90
2893;DHT22;1456;51.840;12.184;2022-11-20T10:10:28;0.10;99.90
2893;DHT22;1456;51.840;12.184;2022-11-20T10:13:27;0.30;99.90
2893;DHT22;1456;51.840;12.184;2022-11-20T10:27:30;0.80;99.90
2893;DHT22;1456;51.840;12.184;2022-11-20T10:30:12;0.80;99.90
2893;DHT22;1456;51.840;12.184;2022-11-20T10:32:43;1.00;99.90
2893;DHT22;1456;51.840;12.184;2022-11-20T10:35:22;1.20;99.90
2893;DHT22;1456;51.840;12.184;2022-11-20T10:37:55;1.40;99.90
2893;DHT22;1456;51.840;12.184;2022-11-20T10:40:37;1.30;99.90
2893;DHT22;1456;51.840;12.184;2022-11-20T10:43:27;1.40;99.90
2893;DHT22;1456;51.840;12.184;2022-11-20T10:46:07;1.50;99.90
2893;DHT22;1456;51.840;12.184;2022-11-20T10:48:40;1.70;99.90
2893;DHT22;1456;51.840;12.184;2022-11-20T11:01:43;2.00;99.90
2893;DHT22;1456;51.840;12.184;2022-11-20T11:06:48;2.10;99.90
2893;DHT22;1456;51.840;12.184;2022-11-20T11:09:26;2.20;99.90
2893;DHT22;1456;51.840;12.184;2022-11-20T11:11:55;2.30;99.90
2893;DHT22;1456;51.840;12.184;2022-11-20T11:14:23;2.50;99.90
2893;DHT22;1456;51.840;12.184;2022-11-20T11:16:53;2.80;99.70
2893;DHT22;1456;51.840;12.184;2022-11-20T11:19:19;2.90;98.90
2893;DHT22;1456;51.840;12.184;2022-11-20T11:21:53;2.80;98.60
2893;DHT22;1456;51.840;12.184;2022-11-20T11:27:01;3.60;97.40
2893;DHT22;1456;51.840;12.184;2022-11-20T11:29:32;3.70;97.40
2893;DHT22;1456;51.840;12.184;2022-11-20T11:32:11;4.00;96.40
2893;DHT22;1456;51.840;12.184;2022-11-20T11:34:37;4.00;96.10
2893;DHT22;1456;51.840;12.184;2022-11-20T11:37:03;4.60;96.10
2893;DHT22;1456;51.840;12.184;2022-11-20T11:39:32;5.40;94.40
2893;DHT22;1456;51.840;12.184;2022-11-20T11:42:00;6.20;93.20
2893;DHT22;1456;51.840;12.184;2022-11-20T11:44:32;6.40;92.20
2893;DHT22;1456;51.840;12.184;2022-11-20T11:47:35;5.80;91.30
2893;DHT22;1456;51.840;12.184;2022-11-20T11:58:44;5.10;94.00
2893;DHT22;1456;51.840;12.184;2022-11-20T12:04:28;7.20;90.90
2893;DHT22;1456;51.840;12.184;2022-11-20T12:09:54;8.30;85.80
2893;DHT22;1456;51.840;12.184;2022-11-20T12:12:29;8.50;87.30
2893;DHT22;1456;51.840;12.184;2022-11-20T12:14:57;8.40;86.20
2893;DHT22;1456;51.840;12.184;2022-11-20T12:17:23;7.70;85.30
2893;DHT22;1456;51.840;12.184;2022-11-20T12:19:49;7.20;88.90
2893;DHT22;1456;51.840;12.184;2022-11-20T12:22:44;6.90;90.00
2893;DHT22;1456;51.840;12.184;2022-11-20T12:31:24;6.80;90.40
2893;DHT22;1456;51.840;12.184;2022-11-20T12:34:10;6.80;90.90
2893;DHT22;1456;51.840;12.184;2022-11-20T12:39:34;6.40;90.20
2893;DHT22;1456;51.840;12.184;2022-11-20T12:56:01;11.20;78.30
2893;DHT22;1456;51.840;12.184;2022-11-20T12:58:40;12.00;77.50
2893;DHT22;1456;51.840;12.184;2022-11-20T13:07:13;13.70;68.80
2893;DHT22;1456;51.840;12.184;2022-11-20T13:09:46;13.40;67.60
2893;DHT22;1456;51.840;12.184;2022-11-20T13:12:29;13.20;68.80
2893;DHT22;1456;51.840;12.184;2022-11-20T13:17:55;13.80;67.90
2893;DHT22;1456;51.840;12.184;2022-11-20T13:20:23;14.10;66.80
2893;DHT22;1456;51.840;12.184;2022-11-20T13:22:52;14.30;64.80
2893;DHT22;1456;51.840;12.184;2022-11-20T13:25:37;14.20;65.30
2893;DHT22;1456;51.840;12.184;2022-11-20T13:30:52;13.90;63.20
2893;DHT22;1456;51.840;12.184;2022-11-20T13:36:06;14.40;62.70
2893;DHT22;1456;51.840;12.184;2022-11-20T13:38:50;14.60;62.80
2893;DHT22;1456;51.840;12.184;2022-11-20T13:41:36;14.70;62.30
2893;DHT22;1456;51.840;12.184;2022-11-20T13:44:33;14.60;60.00
2893;DHT22;1456;51.840;12.184;2022-11-20T13:47:01;14.00;59.70
2893;DHT22;1456;51.840;12.184;2022-11-20T13:49:37;13.70;60.80
2893;DHT22;1456;51.840;12.184;2022-11-20T14:00:18;13.70;62.90
2893;DHT22;1456;51.840;12.184;2022-11-20T14:02:49;13.70;61.60
2893;DHT22;1456;51.840;12.184;2022-11-20T14:05:22;13.70;62.70
2893;DHT22;1456;51.840;12.184;2022-11-20T14:07:50;13.90;64.00
2893;DHT22;1456;51.840;12.184;2022-11-20T14:10:25;14.30;63.70
2893;DHT22;1456;51.840;12.184;2022-11-20T14:12:54;14.60;61.40
2893;DHT22;1456;51.840;12.184;2022-11-20T14:15:30;14.60;60.40
2893;DHT22;1456;51.840;12.184;2022-11-20T14:17:57;14.10;59.90
2893;DHT22;1456;51.840;12.184;2022-11-20T14:20:32;13.40;59.70
2893;DHT22;1456;51.840;12.184;2022-11-20T14:22:58;12.50;60.40
2893;DHT22;1456;51.840;12.184;2022-11-20T14:25:25;11.50;60.90
2893;DHT22;1456;51.840;12.184;2022-11-20T14:27:58;10.60;62.70
2893;DHT22;1456;51.840;12.184;2022-11-20T14:30:44;10.10;64.60
2893;DHT22;1456;51.840;12.184;2022-11-20T14:33:12;9.60;68.20
2893;DHT22;1456;51.840;12.184;2022-11-20T14:35:56;9.40;68.00
2893;DHT22;1456;51.840;12.184;2022-11-20T14:38:25;8.70;68.70
2893;DHT22;1456;51.840;12.184;2022-11-20T14:40:53;7.90;70.30
2893;DHT22;1456;51.840;12.184;2022-11-20T14:46:09;6.20;74.50
2893;DHT22;1456;51.840;12.184;2022-11-20T14:48:43;5.50;78.40
2893;DHT22;1456;51.840;12.184;2022-11-20T14:51:34;4.70;82.70
2893;DHT22;1456;51.840;12.184;2022-11-20T14:54:10;4.00;88.50
2893;DHT22;1456;51.840;12.184;2022-11-20T14:56:36;3.40;92.60
2893;DHT22;1456;51.840;12.184;2022-11-20T14:59:04;2.90;94.40
2893;DHT22;1456;51.840;12.184;2022-11-20T15:01:31;2.60;96.20
2893;DHT22;1456;51.840;12.184;2022-11-20T15:06:31;2.20;98.60
2893;DHT22;1456;51.840;12.184;2022-11-20T15:08:58;2.10;99.30
2893;DHT22;1456;51.840;12.184;2022-11-20T15:11:34;2.00;99.80
2893;DHT22;1456;51.840;12.184;2022-11-20T15:14:09;2.00;99.90
2893;DHT22;1456;51.840;12.184;2022-11-20T15:16:35;1.90;99.90
2893;DHT22;1456;51.840;12.184;2022-11-20T15:19:02;2.00;99.90
2893;DHT22;1456;51.840;12.184;2022-11-20T15:21:29;1.80;99.90
2893;DHT22;1456;51.840;12.184;2022-11-20T15:23:54;1.80;99.90
2893;DHT22;1456;51.840;12.184;2022-11-20T15:26:24;1.80;99.90
2893;DHT22;1456;51.840;12.184;2022-11-20T15:28:51;1.80;99.90
2893;DHT22;1456;51.840;12.184;2022-11-20T15:31:20;1.70;99.90
2893;DHT22;1456;51.840;12.184;2022-11-20T15:33:47;1.70;99.90
2893;DHT22;1456;51.840;12.184;2022-11-20T15:36:14;1.60;99.90
2893;DHT22;1456;51.840;12.184;2022-11-20T15:38:39;1.60;99.90
2893;DHT22;1456;51.840;12.184;2022-11-20T15:41:05;1.50;99.90
2893;DHT22;1456;51.840;12.184;2022-11-20T15:43:31;1.50;99.90
2893;DHT22;1456;51.840;12.184;2022-11-20T15:46:04;1.50;99.90
2893;DHT22;1456;51.840;12.184;2022-11-20T15:48:34;1.40;99.90
2893;DHT22;1456;51.840;12.184;2022-11-20T15:53:40;1.30;99.90
2893;DHT22;1456;51.840;12.184;2022-11-20T15:56:13;1.20;99.90
2893;DHT22;1456;51.840;12.184;2022-11-20T15:58:40;1.10;99.90
2893;DHT22;1456;51.840;12.184;2022-11-20T16:01:09;1.00;99.90
2893;DHT22;1456;51.840;12.184;2022-11-20T16:03:35;1.10;99.90
2893;DHT22;1456;51.840;12.184;2022-11-20T16:06:01;0.90;99.90
2893;DHT22;1456;51.840;12.184;2022-11-20T16:08:27;0.90;99.90
2893;DHT22;1456;51.840;12.184;2022-11-20T16:10:53;1.00;99.90
2893;DHT22;1456;51.840;12.184;2022-11-20T16:13:20;1.20;99.90
2893;DHT22;1456;51.840;12.184;2022-11-20T16:16:06;1.20;99.90
2893;DHT22;1456;51.840;12.184;2022-11-20T16:18:34;1.10;99.90
2893;DHT22;1456;51.840;12.184;2022-11-20T16:21:00;1.20;99.90
2893;DHT22;1456;51.840;12.184;2022-11-20T16:23:26;1.20;99.90
2893;DHT22;1456;51.840;12.184;2022-11-20T16:25:52;1.20;99.90
2893;DHT22;1456;51.840;12.184;2022-11-20T16:28:19;1.20;99.90
2893;DHT22;1456;51.840;12.184;2022-11-20T16:30:45;1.20;99.90
2893;DHT22;1456;51.840;12.184;2022-11-20T16:33:15;1.10;99.90
2893;DHT22;1456;51.840;12.184;2022-11-20T16:35:42;1.10;99.90
2893;DHT22;1456;51.840;12.184;2022-11-20T16:38:09;1.10;99.90
2893;DHT22;1456;51.840;12.184;2022-11-20T16:40:35;1.10;99.90
2893;DHT22;1456;51.840;12.184;2022-11-20T16:43:13;1.10;99.90
2893;DHT22;1456;51.840;12.184;2022-11-20T16:45:43;1.00;99.90
2893;DHT22;1456;51.840;12.184;2022-11-20T16:48:12;0.90;99.90
2893;DHT22;1456;51.840;12.184;2022-11-20T16:50:45;0.80;99.90
2893;DHT22;1456;51.840;12.184;2022-11-20T16:53:12;0.70;99.90
2893;DHT22;1456;51.840;12.184;2022-11-20T16:55:37;0.70;99.90
2893;DHT22;1456;51.840;12.184;2022-11-20T16:58:03;0.70;99.90
2893;DHT22;1456;51.840;12.184;2022-11-20T17:00:29;0.40;99.90
2893;DHT22;1456;51.840;12.184;2022-11-20T17:02:55;0.40;99.90
2893;DHT22;1456;51.840;12.184;2022-11-20T17:05:24;0.20;99.90
2893;DHT22;1456;51.840;12.184;2022-11-20T17:07:50;0.10;99.90
2893;DHT22;1456;51.840;12.184;2022-11-20T17:10:15;0.10;99.90
2893;DHT22;1456;51.840;12.184;2022-11-20T17:12:41;-0.10;99.90
2893;DHT22;1456;51.840;12.184;2022-11-20T17:15:07;-0.20;99.90
2893;DHT22;1456;51.840;12.184;2022-11-20T17:17:32;-0.30;99.90
2893;DHT22;1456;51.840;12.184;2022-11-20T17:20:00;-0.30;99.90
2893;DHT22;1456;51.840;12.184;2022-11-20T17:22:26;-0.40;99.90
2893;DHT22;1456;51.840;12.184;2022-11-20T17:24:52;-0.40;99.90
2893;DHT22;1456;51.840;12.184;2022-11-20T17:27:17;-0.70;99.90
2893;DHT22;1456;51.840;12.184;2022-11-20T17:29:44;-0.60;99.90
2893;DHT22;1456;51.840;12.184;2022-11-20T17:32:10;-0.60;99.90
2893;DHT22;1456;51.840;12.184;2022-11-20T17:34:37;-0.90;99.90
2893;DHT22;1456;51.840;12.184;2022-11-20T17:37:03;-1.00;99.90
2893;DHT22;1456;51.840;12.184;2022-11-20T17:39:28;-1.00;99.90
2893;DHT22;1456;51.840;12.184;2022-11-20T17:41:54;-1.00;99.90
2893;DHT22;1456;51.840;12.184;2022-11-20T17:44:38;-1.30;99.90
2893;DHT22;1456;51.840;12.184;2022-11-20T17:47:06;-1.40;99.90
2893;DHT22;1456;51.840;12.184;2022-11-20T17:49:32;-1.50;99.90
2893;DHT22;1456;51.840;12.184;2022-11-20T17:51:58;-1.50;99.90
2893;DHT22;1456;51.840;12.184;2022-11-20T17:54:24;-1.60;99.90